EDMA/AGB METAR and TAF weather

Enter ICAO airport designator
Station Type Date Time Source
EDMA METAR 2018/12/10 17:20 UTC NOAA

EDMA 101720Z 23010KT 9999 FEW033 BKN062 02/01 Q1020


Station Type Date Time Source
EDMA Decoded METAR 2018/12/10 17:20 UTC NOAA

Augsburg, Germany (EDMA) 48-26N 010-56E 463M
Dec 10, 2018 - 12:20 PM EST / 2018.12.10 1720 UTC
Wind: from the SW (230 degrees) at 12 MPH (10 KT):0
Visibility: greater than 7 mile(s):0
Sky conditions: mostly cloudy
Temperature: 35 F (2 C)
Windchill: 26 F (-3 C):1
Dew Point: 33 F (1 C)
Relative Humidity: 93%
Pressure (altimeter): 30.12 in. Hg (1020 hPa)
ob: EDMA 101720Z 23010KT 9999 FEW033 BKN062 02/01 Q1020
cycle: 17

Station Type Date Time Source
EDMA TAF 2010/02/22 13:50 UTC NOAA

METAR EDMA 221350Z 23006KT CAVOK 10/02 Q0996


Example: see airport list